createdAt,value
2018-09-09T00:00:08.913Z,3.10
2018-09-09T00:02:37.346Z,4.40
2018-09-09T00:05:06.054Z,2.93
2018-09-09T00:07:34.633Z,3.90
2018-09-09T00:10:03.268Z,3.60
2018-09-09T00:12:31.731Z,3.50
2018-09-09T00:15:00.215Z,3.10
2018-09-09T00:17:28.690Z,3.57
2018-09-09T00:19:57.126Z,3.30
2018-09-09T00:22:25.569Z,4.10
2018-09-09T00:24:54.045Z,3.97
2018-09-09T00:27:22.543Z,3.40
2018-09-09T00:29:50.976Z,4.07
2018-09-09T00:32:19.431Z,3.87
2018-09-09T00:34:47.884Z,3.50
2018-09-09T00:37:16.403Z,3.65
2018-09-09T00:39:44.874Z,3.00
2018-09-09T00:42:13.335Z,3.37
2018-09-09T00:44:41.799Z,3.10
2018-09-09T00:47:10.312Z,3.30
2018-09-09T00:49:44.018Z,3.47
2018-09-09T00:52:18.003Z,3.20
2018-09-09T00:54:46.486Z,3.63
2018-09-09T00:57:15.063Z,3.80
2018-09-09T00:59:43.555Z,2.97
2018-09-09T01:02:12.017Z,3.40
2018-09-09T01:04:40.471Z,3.40
2018-09-09T01:07:09.010Z,3.53
2018-09-09T01:09:37.483Z,3.87
2018-09-09T01:12:05.971Z,3.72
2018-09-09T01:14:34.934Z,4.00
2018-09-09T01:17:03.486Z,3.60
2018-09-09T01:19:31.934Z,3.77
2018-09-09T01:22:00.405Z,3.77
2018-09-09T01:24:28.873Z,3.57
2018-09-09T01:26:57.316Z,3.60
2018-09-09T01:29:25.757Z,3.70
2018-09-09T01:31:54.288Z,3.03
2018-09-09T01:34:22.765Z,3.80
2018-09-09T01:36:51.224Z,3.12
2018-09-09T01:39:19.697Z,2.67
2018-09-09T01:41:48.179Z,3.23
2018-09-09T01:44:16.621Z,3.53
2018-09-09T01:46:45.085Z,2.90
2018-09-09T01:49:13.542Z,3.77
2018-09-09T01:51:42.097Z,3.65
2018-09-09T01:54:10.554Z,3.50
2018-09-09T01:56:39.062Z,3.30
2018-09-09T01:59:07.509Z,4.10
2018-09-09T02:01:35.974Z,3.70
2018-09-09T02:04:04.466Z,3.90
2018-09-09T02:06:32.930Z,3.90
2018-09-09T02:09:01.406Z,3.90
2018-09-09T02:11:29.833Z,4.20
2018-09-09T02:13:58.281Z,3.90
2018-09-09T02:16:26.716Z,4.50
2018-09-09T02:18:55.194Z,3.52
2018-09-09T02:21:23.648Z,3.60
2018-09-09T02:23:52.103Z,3.50
2018-09-09T02:26:20.574Z,4.15
2018-09-09T02:28:49.068Z,3.67
2018-09-09T02:31:17.512Z,3.85
2018-09-09T02:33:45.967Z,4.07
2018-09-09T02:36:14.438Z,3.25
2018-09-09T02:38:42.877Z,3.35
2018-09-09T02:41:11.386Z,4.10
2018-09-09T02:43:39.850Z,3.60
2018-09-09T02:46:08.273Z,3.60
2018-09-09T02:48:36.721Z,3.50
2018-09-09T02:51:05.253Z,3.55
2018-09-09T02:53:33.730Z,3.10
2018-09-09T02:56:06.366Z,4.22
2018-09-09T02:58:34.811Z,4.10
2018-09-09T03:01:03.286Z,3.90
2018-09-09T03:03:31.835Z,4.30
2018-09-09T03:06:00.278Z,4.25
2018-09-09T03:08:28.803Z,3.95
2018-09-09T03:11:02.475Z,5.05
2018-09-09T03:13:30.920Z,4.22
2018-09-09T03:15:59.357Z,4.00
2018-09-09T03:18:27.870Z,3.62
2018-09-09T03:20:56.294Z,3.55
2018-09-09T03:23:24.779Z,4.08
2018-09-09T03:25:53.219Z,4.90
2018-09-09T03:28:21.701Z,3.77
2018-09-09T03:30:50.338Z,4.03
2018-09-09T03:33:18.800Z,3.62
2018-09-09T03:35:47.269Z,3.92
2018-09-09T03:38:15.712Z,3.90
2018-09-09T03:40:44.170Z,4.37
2018-09-09T03:43:12.867Z,4.28
2018-09-09T03:45:41.304Z,4.08
2018-09-09T03:48:09.824Z,4.28
2018-09-09T03:50:38.303Z,3.72
2018-09-09T03:53:06.786Z,3.47
2018-09-09T03:55:35.266Z,3.50
2018-09-09T03:58:03.781Z,4.42
2018-09-09T04:00:32.337Z,4.40
2018-09-09T04:03:00.830Z,4.90
2018-09-09T04:05:29.312Z,3.15
2018-09-09T04:07:57.862Z,3.60
2018-09-09T04:10:26.287Z,4.10
2018-09-09T04:12:54.739Z,3.40
2018-09-09T04:15:23.319Z,4.40
2018-09-09T04:17:51.833Z,3.60
2018-09-09T04:20:20.364Z,3.80
2018-09-09T04:22:48.807Z,4.20
2018-09-09T04:25:17.238Z,4.00
2018-09-09T04:27:45.742Z,4.37
2018-09-09T04:30:14.199Z,3.92
2018-09-09T04:32:42.679Z,4.53
2018-09-09T04:35:11.223Z,3.80
2018-09-09T04:37:39.695Z,3.50
2018-09-09T04:40:08.288Z,3.55
2018-09-09T04:42:36.726Z,4.42
2018-09-09T04:45:05.361Z,4.20
2018-09-09T04:47:33.799Z,3.47
2018-09-09T04:50:02.326Z,3.83
2018-09-09T04:52:30.741Z,4.70
2018-09-09T04:54:59.202Z,3.92
2018-09-09T04:57:27.679Z,4.53
2018-09-09T04:59:56.113Z,3.45
2018-09-09T05:02:24.586Z,3.35
2018-09-09T05:04:53.065Z,3.67
2018-09-09T05:07:21.488Z,4.30
2018-09-09T05:09:49.944Z,4.00
2018-09-09T05:12:18.398Z,3.75
2018-09-09T05:14:46.859Z,3.83
2018-09-09T05:17:15.311Z,3.65
2018-09-09T05:19:43.906Z,3.67
2018-09-09T05:22:12.352Z,3.92
2018-09-09T05:24:40.850Z,3.70
2018-09-09T05:27:09.279Z,4.08
2018-09-09T05:29:37.736Z,3.47
2018-09-09T05:32:06.286Z,3.10
2018-09-09T05:34:34.767Z,3.37
2018-09-09T05:37:03.354Z,3.40
2018-09-09T05:39:31.860Z,3.40
2018-09-09T05:42:00.311Z,3.37
2018-09-09T05:44:28.908Z,4.00
2018-09-09T05:46:57.349Z,3.20
2018-09-09T05:49:25.812Z,2.90
2018-09-09T05:51:54.342Z,3.13
2018-09-09T05:54:22.805Z,4.73
2018-09-09T05:56:51.256Z,3.63
2018-09-09T05:59:19.698Z,3.47
2018-09-09T06:01:48.240Z,4.23
2018-09-09T06:04:17.301Z,3.27
2018-09-09T06:06:45.792Z,3.70
2018-09-09T06:09:14.235Z,4.57
2018-09-09T06:11:42.690Z,3.50
2018-09-09T06:14:11.492Z,3.90
2018-09-09T06:16:39.925Z,2.80
2018-09-09T06:19:08.382Z,2.90
2018-09-09T06:21:36.916Z,3.07
2018-09-09T06:24:05.455Z,2.43
2018-09-09T06:26:35.014Z,2.77
2018-09-09T06:29:03.462Z,3.30
2018-09-09T06:31:31.935Z,3.47
2018-09-09T06:34:00.526Z,3.43
2018-09-09T06:36:28.954Z,2.60
2018-09-09T06:38:57.409Z,3.10
2018-09-09T06:41:25.867Z,3.60
2018-09-09T06:43:54.404Z,3.23
2018-09-09T06:46:23.601Z,3.37
2018-09-09T06:48:52.037Z,3.73
2018-09-09T06:51:20.623Z,3.10
2018-09-09T06:53:49.129Z,2.77
2018-09-09T06:56:17.714Z,3.10
2018-09-09T06:58:46.137Z,2.53
2018-09-09T07:01:14.687Z,2.43
2018-09-09T07:03:43.223Z,2.40
2018-09-09T07:06:11.831Z,2.07
2018-09-09T07:08:40.330Z,2.80
2018-09-09T07:11:08.984Z,2.30
2018-09-09T07:13:37.416Z,2.60
2018-09-09T07:16:06.170Z,2.20
2018-09-09T07:18:34.628Z,2.10
2018-09-09T07:21:03.106Z,1.70
2018-09-09T07:23:31.594Z,2.17
2018-09-09T07:26:00.056Z,2.30
2018-09-09T07:28:28.555Z,3.03
2018-09-09T07:30:57.084Z,2.50
2018-09-09T07:33:25.563Z,1.90
2018-09-09T07:35:53.999Z,2.07
2018-09-09T07:38:22.713Z,2.40
2018-09-09T07:40:51.249Z,2.17
2018-09-09T07:43:19.706Z,2.70
2018-09-09T07:45:48.190Z,2.40
2018-09-09T07:48:16.682Z,2.40
2018-09-09T07:50:45.135Z,2.70
2018-09-09T07:53:13.601Z,2.47
2018-09-09T07:55:42.091Z,2.30
2018-09-09T07:58:10.527Z,2.10
2018-09-09T08:00:39.007Z,1.93
2018-09-09T08:03:07.731Z,2.07
2018-09-09T08:05:36.274Z,2.10
2018-09-09T08:08:04.757Z,1.90
2018-09-09T08:10:33.308Z,1.77
2018-09-09T08:13:01.798Z,1.90
2018-09-09T08:15:30.234Z,2.00
2018-09-09T08:17:58.741Z,2.10
2018-09-09T08:20:27.243Z,2.40
2018-09-09T08:22:55.823Z,1.93
2018-09-09T08:25:24.292Z,2.20
2018-09-09T08:27:52.771Z,1.73
2018-09-09T08:30:21.317Z,1.47
2018-09-09T08:32:49.798Z,1.87
2018-09-09T08:35:18.262Z,1.90
2018-09-09T08:37:46.754Z,1.50
2018-09-09T08:40:15.295Z,1.50
2018-09-09T08:42:43.857Z,1.57
2018-09-09T08:45:12.326Z,1.77
2018-09-09T08:47:41.286Z,1.40
2018-09-09T08:50:09.778Z,1.40
2018-09-09T08:52:38.331Z,1.83
2018-09-09T08:55:06.885Z,1.57
2018-09-09T08:57:35.554Z,1.67
2018-09-09T09:00:04.293Z,1.40
2018-09-09T09:02:32.757Z,1.70
2018-09-09T09:05:01.258Z,1.77
2018-09-09T09:07:29.745Z,1.60
2018-09-09T09:09:58.240Z,1.80
2018-09-09T09:12:26.695Z,1.70
2018-09-09T09:14:55.243Z,2.03
2018-09-09T09:17:23.803Z,1.57
2018-09-09T09:19:52.297Z,1.50
2018-09-09T09:22:20.789Z,1.90
2018-09-09T09:24:49.267Z,1.97
2018-09-09T09:27:17.742Z,1.63
2018-09-09T09:29:51.410Z,1.53
2018-09-09T09:32:23.144Z,1.93
2018-09-09T09:34:52.380Z,1.40
2018-09-09T09:37:22.356Z,1.30
2018-09-09T09:39:51.142Z,1.47
2018-09-09T09:42:19.635Z,1.57
2018-09-09T09:44:48.183Z,1.60
2018-09-09T09:47:16.683Z,1.60
2018-09-09T09:49:45.143Z,1.50
2018-09-09T09:52:13.681Z,1.70
2018-09-09T09:54:42.130Z,1.50
2018-09-09T09:57:10.971Z,1.33
2018-09-09T09:59:39.419Z,1.50
2018-09-09T10:02:07.897Z,1.37
2018-09-09T10:04:36.437Z,1.00
2018-09-09T10:07:05.059Z,1.40
2018-09-09T10:09:33.557Z,0.90
2018-09-09T10:12:02.091Z,1.10
2018-09-09T10:14:30.571Z,1.20
2018-09-09T10:16:59.085Z,1.20
2018-09-09T10:19:27.763Z,1.10
2018-09-09T10:21:56.335Z,1.20
2018-09-09T10:24:25.166Z,1.20
2018-09-09T10:26:53.603Z,1.07
2018-09-09T10:29:22.173Z,1.03
2018-09-09T10:31:50.706Z,1.00
2018-09-09T10:34:19.300Z,0.80
2018-09-09T10:36:47.760Z,0.90
2018-09-09T10:39:16.223Z,1.20
2018-09-09T10:41:44.675Z,1.00
2018-09-09T10:44:13.135Z,0.97
2018-09-09T10:46:41.644Z,1.10
2018-09-09T10:49:10.106Z,1.10
2018-09-09T10:51:38.623Z,1.87
2018-09-09T10:54:07.334Z,1.20
2018-09-09T10:56:35.903Z,1.10
2018-09-09T10:59:04.410Z,1.30
2018-09-09T11:01:33.057Z,1.10
2018-09-09T11:04:01.601Z,1.33
2018-09-09T11:06:30.139Z,1.20
2018-09-09T11:08:58.582Z,1.03
2018-09-09T11:11:27.146Z,1.20
2018-09-09T11:13:55.591Z,1.13
2018-09-09T11:16:24.104Z,1.10
2018-09-09T11:18:52.591Z,1.03
2018-09-09T11:21:21.031Z,1.00
2018-09-09T11:23:49.474Z,0.90
2018-09-09T11:26:17.918Z,1.20
2018-09-09T11:28:46.570Z,1.10
2018-09-09T11:31:15.059Z,1.20
2018-09-09T11:33:43.554Z,1.30
2018-09-09T11:36:12.549Z,1.00
2018-09-09T11:38:41.154Z,1.20
2018-09-09T11:41:09.634Z,1.17
2018-09-09T11:43:38.128Z,1.10
2018-09-09T11:46:06.722Z,1.20
2018-09-09T11:48:35.180Z,1.30
2018-09-09T11:51:03.663Z,1.20
2018-09-09T11:53:32.150Z,1.53
2018-09-09T11:56:00.670Z,1.70
2018-09-09T11:58:29.216Z,1.77
2018-09-09T12:00:57.812Z,5.70
2018-09-09T12:03:26.295Z,2.80
2018-09-09T12:05:54.744Z,2.80
2018-09-09T12:08:23.255Z,4.60
2018-09-09T12:10:51.718Z,4.97
2018-09-09T12:13:20.150Z,5.20
2018-09-09T12:15:48.645Z,4.60
2018-09-09T12:18:17.065Z,2.90
2018-09-09T12:20:45.591Z,4.47
2018-09-09T12:23:14.048Z,4.90
2018-09-09T12:25:42.502Z,3.93
2018-09-09T12:28:10.948Z,2.70
2018-09-09T12:30:39.508Z,1.80
2018-09-09T12:33:07.999Z,1.83
2018-09-09T12:35:36.529Z,1.70
2018-09-09T12:38:05.078Z,2.57
2018-09-09T12:40:33.596Z,2.50
2018-09-09T12:43:07.315Z,2.10
2018-09-09T12:45:41.051Z,3.00
2018-09-09T12:48:14.862Z,2.20
2018-09-09T12:50:43.347Z,1.30
2018-09-09T12:53:11.853Z,1.20
2018-09-09T12:55:40.305Z,1.20
2018-09-09T12:58:08.809Z,1.30
2018-09-09T13:00:37.510Z,1.40
2018-09-09T13:03:05.934Z,1.30
2018-09-09T13:05:34.439Z,1.13
2018-09-09T13:08:02.987Z,1.30
2018-09-09T13:10:31.454Z,1.10
2018-09-09T13:13:05.370Z,1.20
2018-09-09T13:15:33.846Z,1.47
2018-09-09T13:18:02.347Z,1.57
2018-09-09T13:20:30.899Z,1.23
2018-09-09T13:22:59.430Z,1.40
2018-09-09T13:25:28.059Z,1.93
2018-09-09T13:27:56.499Z,1.30
2018-09-09T13:30:25.042Z,1.30
2018-09-09T13:32:53.498Z,1.23
2018-09-09T13:35:21.940Z,1.23
2018-09-09T13:37:50.431Z,1.00
2018-09-09T13:40:18.964Z,1.30
2018-09-09T13:42:47.461Z,1.13
2018-09-09T13:45:16.000Z,1.50
2018-09-09T13:47:44.803Z,1.20
2018-09-09T13:50:13.481Z,1.30
2018-09-09T13:52:41.991Z,1.60
2018-09-09T13:55:10.455Z,1.40
2018-09-09T13:57:38.903Z,1.30
2018-09-09T14:00:08.326Z,1.27
2018-09-09T14:02:36.754Z,1.10
2018-09-09T14:05:05.263Z,1.23
2018-09-09T14:07:33.977Z,1.10
2018-09-09T14:10:02.681Z,1.30
2018-09-09T14:12:31.141Z,1.30
2018-09-09T14:14:59.642Z,0.93
2018-09-09T14:17:28.252Z,1.00
2018-09-09T14:19:56.746Z,1.10
2018-09-09T14:22:25.333Z,1.50
2018-09-09T14:24:53.790Z,1.23
2018-09-09T14:27:22.306Z,1.10
2018-09-09T14:29:50.763Z,1.30
2018-09-09T14:32:19.620Z,1.23
2018-09-09T14:34:48.109Z,1.20
2018-09-09T14:37:17.763Z,1.10
2018-09-09T14:39:46.344Z,1.30
2018-09-09T14:42:14.801Z,1.10
2018-09-09T14:44:43.240Z,1.07
2018-09-09T14:47:11.726Z,1.23
2018-09-09T14:49:40.175Z,1.07
2018-09-09T14:52:08.670Z,1.13
2018-09-09T14:54:37.178Z,1.30
2018-09-09T14:57:05.639Z,1.10
2018-09-09T14:59:34.250Z,1.00
2018-09-09T15:02:02.761Z,1.03
2018-09-09T15:04:31.203Z,1.13
2018-09-09T15:06:59.763Z,2.40
2018-09-09T15:09:28.288Z,1.10
2018-09-09T15:11:56.879Z,1.30
2018-09-09T15:14:25.776Z,1.40
2018-09-09T15:16:54.235Z,1.40
2018-09-09T15:19:22.804Z,1.13
2018-09-09T15:21:51.263Z,1.10
2018-09-09T15:24:19.787Z,1.33
2018-09-09T15:26:48.250Z,1.50
2018-09-09T15:29:16.735Z,1.40
2018-09-09T15:31:45.305Z,1.50
2018-09-09T15:34:13.862Z,1.30
2018-09-09T15:36:42.390Z,1.40
2018-09-09T15:39:10.886Z,1.30
2018-09-09T15:41:39.382Z,1.60
2018-09-09T15:44:07.862Z,1.17
2018-09-09T15:46:36.454Z,1.50
2018-09-09T15:49:04.959Z,1.10
2018-09-09T15:51:33.414Z,1.40
2018-09-09T15:54:01.853Z,1.17
2018-09-09T15:56:30.390Z,1.40
2018-09-09T15:58:58.857Z,1.70
2018-09-09T16:01:27.331Z,1.47
2018-09-09T16:03:56.139Z,1.40
2018-09-09T16:06:24.619Z,1.40
2018-09-09T16:08:53.111Z,1.47
2018-09-09T16:11:21.656Z,1.30
2018-09-09T16:13:50.118Z,1.20
2018-09-09T16:16:18.591Z,1.50
2018-09-09T16:18:47.114Z,1.23
2018-09-09T16:21:15.663Z,1.30
2018-09-09T16:23:44.130Z,1.43
2018-09-09T16:26:12.660Z,1.30
2018-09-09T16:28:41.183Z,1.90
2018-09-09T16:31:09.647Z,1.40
2018-09-09T16:33:38.207Z,1.20
2018-09-09T16:36:06.763Z,1.30
2018-09-09T16:38:35.686Z,1.20
2018-09-09T16:41:04.110Z,1.30
2018-09-09T16:43:32.583Z,2.27
2018-09-09T16:46:01.044Z,2.03
2018-09-09T16:48:29.526Z,2.00
2018-09-09T16:50:58.003Z,1.93
2018-09-09T16:53:26.541Z,1.50
2018-09-09T16:55:55.024Z,1.70
2018-09-09T16:58:23.515Z,1.87
2018-09-09T17:00:52.050Z,1.70
2018-09-09T17:03:20.519Z,1.53
2018-09-09T17:05:48.986Z,1.50
2018-09-09T17:08:17.439Z,1.30
2018-09-09T17:10:45.986Z,1.50
2018-09-09T17:13:14.451Z,1.20
2018-09-09T17:15:42.940Z,1.50
2018-09-09T17:18:11.447Z,1.60
2018-09-09T17:20:39.967Z,1.40
2018-09-09T17:23:08.448Z,1.97
2018-09-09T17:25:36.924Z,1.53
2018-09-09T17:28:05.504Z,1.40
2018-09-09T17:30:33.946Z,1.53
2018-09-09T17:33:02.420Z,1.60
2018-09-09T17:35:30.895Z,1.60
2018-09-09T17:37:59.445Z,1.60
2018-09-09T17:40:27.957Z,1.40
2018-09-09T17:42:56.425Z,1.80
2018-09-09T17:45:25.114Z,1.30
2018-09-09T17:47:53.735Z,1.43
2018-09-09T17:50:22.243Z,1.40
2018-09-09T17:52:50.772Z,1.37
2018-09-09T17:55:19.205Z,1.60
2018-09-09T17:57:47.853Z,1.50
2018-09-09T18:00:16.335Z,1.77
2018-09-09T18:02:44.878Z,1.60
2018-09-09T18:05:13.482Z,1.40
2018-09-09T18:07:42.027Z,1.40
2018-09-09T18:10:10.597Z,1.60
2018-09-09T18:12:39.378Z,1.37
2018-09-09T18:15:07.912Z,2.33
2018-09-09T18:17:36.470Z,1.60
2018-09-09T18:20:05.214Z,1.47
2018-09-09T18:22:33.683Z,1.50
2018-09-09T18:25:02.192Z,1.27
2018-09-09T18:27:30.743Z,1.53
2018-09-09T18:29:59.240Z,1.40
2018-09-09T18:32:27.742Z,1.60
2018-09-09T18:34:56.262Z,1.50
2018-09-09T18:37:24.802Z,1.50
2018-09-09T18:39:53.287Z,1.77
2018-09-09T18:42:21.839Z,1.43
2018-09-09T18:44:50.401Z,2.00
2018-09-09T18:47:18.836Z,1.83
2018-09-09T18:49:47.350Z,1.63
2018-09-09T18:52:15.855Z,1.50
2018-09-09T18:54:44.388Z,1.90
2018-09-09T18:57:12.895Z,2.17
2018-09-09T18:59:41.391Z,1.70
2018-09-09T19:02:09.925Z,1.77
2018-09-09T19:04:38.399Z,1.80
2018-09-09T19:07:06.914Z,1.80
2018-09-09T19:09:35.401Z,1.93
2018-09-09T19:12:03.940Z,1.47
2018-09-09T19:14:32.400Z,1.90
2018-09-09T19:17:00.926Z,1.60
2018-09-09T19:19:29.541Z,1.70
2018-09-09T19:21:58.193Z,1.70
2018-09-09T19:24:26.711Z,1.80
2018-09-09T19:26:55.287Z,2.20
2018-09-09T19:29:23.800Z,2.00
2018-09-09T19:31:52.304Z,2.33
2018-09-09T19:34:20.805Z,2.83
2018-09-09T19:36:49.307Z,2.40
2018-09-09T19:39:17.820Z,2.90
2018-09-09T19:41:46.318Z,3.60
2018-09-09T19:44:14.883Z,2.70
2018-09-09T19:46:43.393Z,2.17
2018-09-09T19:49:11.857Z,2.37
2018-09-09T19:51:40.327Z,2.17
2018-09-09T19:54:08.922Z,2.27
2018-09-09T19:56:37.456Z,2.70
2018-09-09T19:59:06.088Z,2.70
2018-09-09T20:01:34.618Z,2.83
2018-09-09T20:04:03.188Z,2.93
2018-09-09T20:06:31.674Z,3.30
2018-09-09T20:09:00.162Z,4.17
2018-09-09T20:11:28.646Z,4.10
2018-09-09T20:13:57.080Z,4.30
2018-09-09T20:16:25.600Z,4.27
2018-09-09T20:18:54.050Z,4.57
2018-09-09T20:21:22.573Z,3.43
2018-09-09T20:23:51.264Z,3.30
2018-09-09T20:26:19.742Z,3.57
2018-09-09T20:28:48.324Z,2.90
2018-09-09T20:31:16.871Z,3.83
2018-09-09T20:33:45.361Z,3.13
2018-09-09T20:36:13.863Z,2.93
2018-09-09T20:38:42.400Z,2.93
2018-09-09T20:41:10.819Z,3.33
2018-09-09T20:43:39.330Z,3.60
2018-09-09T20:46:07.867Z,4.10
2018-09-09T20:48:36.567Z,3.97
2018-09-09T20:51:05.670Z,3.63
2018-09-09T20:53:34.260Z,4.13
2018-09-09T20:56:02.795Z,4.20
2018-09-09T20:58:31.344Z,3.90
2018-09-09T21:00:59.831Z,4.30
2018-09-09T21:03:28.428Z,3.83
2018-09-09T21:05:57.318Z,4.60
2018-09-09T21:08:25.814Z,4.43
2018-09-09T21:10:54.418Z,4.10
2018-09-09T21:13:22.903Z,3.90
2018-09-09T21:15:51.957Z,4.13
2018-09-09T21:18:20.486Z,4.10
2018-09-09T21:20:48.987Z,3.83
2018-09-09T21:23:17.472Z,4.80
2018-09-09T21:25:45.943Z,3.10
2018-09-09T21:28:14.394Z,3.93
2018-09-09T21:30:42.860Z,3.50
2018-09-09T21:33:11.466Z,3.73
2018-09-09T21:35:40.014Z,3.50
2018-09-09T21:38:08.674Z,3.37
2018-09-09T21:40:37.150Z,3.90
2018-09-09T21:43:05.867Z,3.57
2018-09-09T21:45:34.494Z,3.77
2018-09-09T21:48:03.159Z,4.40
2018-09-09T21:50:31.673Z,4.70
2018-09-09T21:53:00.160Z,3.50
2018-09-09T21:55:28.634Z,4.00
2018-09-09T21:57:57.115Z,4.30
2018-09-09T22:00:25.666Z,4.10
2018-09-09T22:02:54.140Z,4.10
2018-09-09T22:05:22.586Z,3.53
2018-09-09T22:07:51.085Z,3.07
2018-09-09T22:10:19.543Z,3.70
2018-09-09T22:12:48.019Z,3.50
2018-09-09T22:15:16.489Z,3.13
2018-09-09T22:17:44.985Z,3.17
2018-09-09T22:20:13.571Z,3.30
2018-09-09T22:22:42.008Z,4.20
2018-09-09T22:25:10.463Z,3.93
2018-09-09T22:27:38.894Z,2.90
2018-09-09T22:30:07.435Z,3.67
2018-09-09T22:32:35.898Z,3.70
2018-09-09T22:35:04.410Z,2.83
2018-09-09T22:37:32.872Z,3.53
2018-09-09T22:40:01.323Z,3.63
2018-09-09T22:42:29.788Z,3.40
2018-09-09T22:44:58.206Z,2.50
2018-09-09T22:47:26.655Z,3.30
2018-09-09T22:49:55.155Z,2.97
2018-09-09T22:52:23.675Z,3.10
2018-09-09T22:54:52.112Z,3.57
2018-09-09T22:57:20.560Z,3.30
2018-09-09T22:59:49.009Z,3.57
2018-09-09T23:02:17.440Z,3.47
2018-09-09T23:04:45.967Z,3.80
2018-09-09T23:07:14.739Z,3.40
2018-09-09T23:09:43.312Z,2.90
2018-09-09T23:12:11.797Z,2.70
2018-09-09T23:14:40.306Z,2.87
2018-09-09T23:17:08.733Z,3.13
2018-09-09T23:19:37.211Z,3.40
2018-09-09T23:22:05.671Z,3.97
2018-09-09T23:24:34.124Z,3.80
2018-09-09T23:27:02.576Z,3.20
2018-09-09T23:29:31.101Z,3.30
2018-09-09T23:31:59.559Z,3.50
2018-09-09T23:34:28.025Z,3.73
2018-09-09T23:36:56.493Z,4.03
2018-09-09T23:39:25.122Z,3.50
2018-09-09T23:41:53.586Z,3.50
2018-09-09T23:44:22.074Z,3.50
2018-09-09T23:46:50.593Z,4.13
2018-09-09T23:49:19.078Z,3.90
2018-09-09T23:51:47.545Z,3.87
2018-09-09T23:54:16.002Z,3.30
2018-09-09T23:56:44.492Z,3.93
2018-09-09T23:59:12.972Z,3.37
